sensor_id;sensor_type;location;lat;lon;timestamp;temperature;humidity
67163;DHT22;54092;53.088;8.850;2023-05-03T00:00:55;6.30;99.90
67163;DHT22;54092;53.088;8.850;2023-05-03T00:03:25;6.30;99.90
67163;DHT22;54092;53.088;8.850;2023-05-03T00:05:51;6.30;99.90
67163;DHT22;54092;53.088;8.850;2023-05-03T00:08:16;6.30;99.90
67163;DHT22;54092;53.088;8.850;2023-05-03T00:10:42;6.30;99.90
67163;DHT22;54092;53.088;8.850;2023-05-03T00:13:07;6.20;99.90
67163;DHT22;54092;53.088;8.850;2023-05-03T00:15:33;6.20;99.90
67163;DHT22;54092;53.088;8.850;2023-05-03T00:17:58;6.10;99.90
67163;DHT22;54092;53.088;8.850;2023-05-03T00:20:24;6.10;99.90
67163;DHT22;54092;53.088;8.850;2023-05-03T00:22:50;6.00;99.90
67163;DHT22;54092;53.088;8.850;2023-05-03T00:25:16;5.90;99.90
67163;DHT22;54092;53.088;8.850;2023-05-03T00:27:41;5.90;99.90
67163;DHT22;54092;53.088;8.850;2023-05-03T00:30:07;5.90;99.90
67163;DHT22;54092;53.088;8.850;2023-05-03T00:32:34;5.80;99.90
67163;DHT22;54092;53.088;8.850;2023-05-03T00:35:00;5.80;99.90
67163;DHT22;54092;53.088;8.850;2023-05-03T00:37:25;5.80;99.90
67163;DHT22;54092;53.088;8.850;2023-05-03T00:39:52;5.70;99.90
67163;DHT22;54092;53.088;8.850;2023-05-03T00:42:17;5.70;99.90
67163;DHT22;54092;53.088;8.850;2023-05-03T00:44:43;5.70;99.90
67163;DHT22;54092;53.088;8.850;2023-05-03T00:47:09;5.60;99.90
67163;DHT22;54092;53.088;8.850;2023-05-03T00:49:35;5.60;99.90
67163;DHT22;54092;53.088;8.850;2023-05-03T00:52:01;5.50;99.90
67163;DHT22;54092;53.088;8.850;2023-05-03T00:54:28;5.50;99.90
67163;DHT22;54092;53.088;8.850;2023-05-03T00:56:55;5.50;99.90
67163;DHT22;54092;53.088;8.850;2023-05-03T00:59:21;5.40;99.90
67163;DHT22;54092;53.088;8.850;2023-05-03T01:01:51;5.40;99.90
67163;DHT22;54092;53.088;8.850;2023-05-03T01:04:18;5.30;99.90
67163;DHT22;54092;53.088;8.850;2023-05-03T01:09:45;5.30;99.90
67163;DHT22;54092;53.088;8.850;2023-05-03T01:12:39;5.30;99.90
67163;DHT22;54092;53.088;8.850;2023-05-03T01:17:45;5.30;99.90
67163;DHT22;54092;53.088;8.850;2023-05-03T01:20:15;5.30;99.90
67163;DHT22;54092;53.088;8.850;2023-05-03T01:22:46;5.30;99.90
67163;DHT22;54092;53.088;8.850;2023-05-03T01:25:14;5.30;99.90
67163;DHT22;54092;53.088;8.850;2023-05-03T01:27:41;5.40;99.90
67163;DHT22;54092;53.088;8.850;2023-05-03T01:30:11;5.40;99.90
67163;DHT22;54092;53.088;8.850;2023-05-03T01:32:42;5.40;99.90
67163;DHT22;54092;53.088;8.850;2023-05-03T01:35:19;5.50;99.90
67163;DHT22;54092;53.088;8.850;2023-05-03T01:37:48;5.50;99.90
67163;DHT22;54092;53.088;8.850;2023-05-03T01:40:16;5.60;99.90
67163;DHT22;54092;53.088;8.850;2023-05-03T01:42:44;5.60;99.90
67163;DHT22;54092;53.088;8.850;2023-05-03T01:45:10;5.70;99.90
67163;DHT22;54092;53.088;8.850;2023-05-03T01:47:36;5.70;99.90
67163;DHT22;54092;53.088;8.850;2023-05-03T01:50:01;5.70;99.90
67163;DHT22;54092;53.088;8.850;2023-05-03T01:52:27;5.70;99.90
67163;DHT22;54092;53.088;8.850;2023-05-03T01:54:53;5.70;99.90
67163;DHT22;54092;53.088;8.850;2023-05-03T01:57:18;5.80;99.90
67163;DHT22;54092;53.088;8.850;2023-05-03T01:59:44;5.80;99.90
67163;DHT22;54092;53.088;8.850;2023-05-03T02:02:09;5.80;99.90
67163;DHT22;54092;53.088;8.850;2023-05-03T02:04:35;5.80;99.90
67163;DHT22;54092;53.088;8.850;2023-05-03T02:07:00;5.70;99.90
67163;DHT22;54092;53.088;8.850;2023-05-03T02:09:26;5.80;99.90
67163;DHT22;54092;53.088;8.850;2023-05-03T02:11:51;5.70;99.90
67163;DHT22;54092;53.088;8.850;2023-05-03T02:14:17;5.80;99.90
67163;DHT22;54092;53.088;8.850;2023-05-03T02:16:42;5.80;99.90
67163;DHT22;54092;53.088;8.850;2023-05-03T02:19:08;5.80;99.90
67163;DHT22;54092;53.088;8.850;2023-05-03T02:21:34;5.80;99.90
67163;DHT22;54092;53.088;8.850;2023-05-03T02:24:00;5.80;99.90
67163;DHT22;54092;53.088;8.850;2023-05-03T02:26:26;5.80;99.90
67163;DHT22;54092;53.088;8.850;2023-05-03T02:28:51;5.90;99.90
67163;DHT22;54092;53.088;8.850;2023-05-03T02:31:17;5.90;99.90
67163;DHT22;54092;53.088;8.850;2023-05-03T02:33:42;5.90;99.90
67163;DHT22;54092;53.088;8.850;2023-05-03T02:36:08;5.90;99.90
67163;DHT22;54092;53.088;8.850;2023-05-03T02:38:35;6.00;99.90
67163;DHT22;54092;53.088;8.850;2023-05-03T02:41:00;6.00;99.90
67163;DHT22;54092;53.088;8.850;2023-05-03T02:43:26;6.10;99.90
67163;DHT22;54092;53.088;8.850;2023-05-03T02:45:51;6.10;99.90
67163;DHT22;54092;53.088;8.850;2023-05-03T02:48:17;6.10;99.90
67163;DHT22;54092;53.088;8.850;2023-05-03T02:50:42;6.10;99.90
67163;DHT22;54092;53.088;8.850;2023-05-03T02:53:08;6.20;99.90
67163;DHT22;54092;53.088;8.850;2023-05-03T02:55:34;6.30;99.90
67163;DHT22;54092;53.088;8.850;2023-05-03T02:57:59;6.30;99.90
67163;DHT22;54092;53.088;8.850;2023-05-03T03:00:25;6.30;99.90
67163;DHT22;54092;53.088;8.850;2023-05-03T03:02:51;6.30;99.90
67163;DHT22;54092;53.088;8.850;2023-05-03T03:05:16;6.40;99.90
67163;DHT22;54092;53.088;8.850;2023-05-03T03:07:42;6.40;99.90
67163;DHT22;54092;53.088;8.850;2023-05-03T03:10:08;6.50;99.90
67163;DHT22;54092;53.088;8.850;2023-05-03T03:12:37;6.50;99.90
67163;DHT22;54092;53.088;8.850;2023-05-03T03:15:03;6.50;99.90
67163;DHT22;54092;53.088;8.850;2023-05-03T03:17:29;6.50;99.90
67163;DHT22;54092;53.088;8.850;2023-05-03T03:19:55;6.50;99.90
67163;DHT22;54092;53.088;8.850;2023-05-03T03:22:22;6.50;99.90
67163;DHT22;54092;53.088;8.850;2023-05-03T03:24:48;6.50;99.90
67163;DHT22;54092;53.088;8.850;2023-05-03T03:27:13;6.50;99.90
67163;DHT22;54092;53.088;8.850;2023-05-03T03:29:39;6.60;99.90
67163;DHT22;54092;53.088;8.850;2023-05-03T03:32:05;6.60;99.90
67163;DHT22;54092;53.088;8.850;2023-05-03T03:34:31;6.60;99.90
67163;DHT22;54092;53.088;8.850;2023-05-03T03:36:57;6.60;99.90
67163;DHT22;54092;53.088;8.850;2023-05-03T03:39:23;6.70;99.90
67163;DHT22;54092;53.088;8.850;2023-05-03T03:41:48;6.70;99.90
67163;DHT22;54092;53.088;8.850;2023-05-03T03:44:14;6.70;99.90
67163;DHT22;54092;53.088;8.850;2023-05-03T03:46:39;6.70;99.90
67163;DHT22;54092;53.088;8.850;2023-05-03T03:49:05;6.60;99.90
67163;DHT22;54092;53.088;8.850;2023-05-03T03:51:32;6.60;99.90
67163;DHT22;54092;53.088;8.850;2023-05-03T03:53:57;6.70;99.90
67163;DHT22;54092;53.088;8.850;2023-05-03T03:56:23;6.70;99.90
67163;DHT22;54092;53.088;8.850;2023-05-03T03:58:49;6.70;99.90
67163;DHT22;54092;53.088;8.850;2023-05-03T04:01:14;6.80;99.90
67163;DHT22;54092;53.088;8.850;2023-05-03T04:03:40;6.80;99.90
67163;DHT22;54092;53.088;8.850;2023-05-03T04:06:06;6.80;99.90
67163;DHT22;54092;53.088;8.850;2023-05-03T04:08:32;6.80;99.90
67163;DHT22;54092;53.088;8.850;2023-05-03T04:10:57;6.80;99.90
67163;DHT22;54092;53.088;8.850;2023-05-03T04:13:23;6.80;99.90
67163;DHT22;54092;53.088;8.850;2023-05-03T04:15:48;6.80;99.90
67163;DHT22;54092;53.088;8.850;2023-05-03T04:18:14;6.90;99.90
67163;DHT22;54092;53.088;8.850;2023-05-03T04:20:39;6.90;99.90
67163;DHT22;54092;53.088;8.850;2023-05-03T04:23:04;6.90;99.90
67163;DHT22;54092;53.088;8.850;2023-05-03T04:25:30;6.90;99.90
67163;DHT22;54092;53.088;8.850;2023-05-03T04:27:57;6.90;99.90
67163;DHT22;54092;53.088;8.850;2023-05-03T04:30:22;7.00;99.90
67163;DHT22;54092;53.088;8.850;2023-05-03T04:32:50;7.10;99.90
67163;DHT22;54092;53.088;8.850;2023-05-03T04:35:18;7.00;99.90
67163;DHT22;54092;53.088;8.850;2023-05-03T04:37:44;7.10;99.90
67163;DHT22;54092;53.088;8.850;2023-05-03T04:40:10;7.00;99.90
67163;DHT22;54092;53.088;8.850;2023-05-03T04:42:37;7.00;99.90
67163;DHT22;54092;53.088;8.850;2023-05-03T04:45:02;7.00;99.90
67163;DHT22;54092;53.088;8.850;2023-05-03T04:47:31;7.10;99.90
67163;DHT22;54092;53.088;8.850;2023-05-03T04:49:57;7.10;99.90
67163;DHT22;54092;53.088;8.850;2023-05-03T04:52:22;7.20;99.90
67163;DHT22;54092;53.088;8.850;2023-05-03T04:54:47;7.10;99.90
67163;DHT22;54092;53.088;8.850;2023-05-03T04:57:13;7.20;99.90
67163;DHT22;54092;53.088;8.850;2023-05-03T04:59:38;7.30;99.90
67163;DHT22;54092;53.088;8.850;2023-05-03T05:02:04;7.30;99.90
67163;DHT22;54092;53.088;8.850;2023-05-03T05:04:30;7.40;99.90
67163;DHT22;54092;53.088;8.850;2023-05-03T05:06:55;7.50;99.90
67163;DHT22;54092;53.088;8.850;2023-05-03T05:09:22;7.50;99.90
67163;DHT22;54092;53.088;8.850;2023-05-03T05:11:48;7.60;99.90
67163;DHT22;54092;53.088;8.850;2023-05-03T05:14:14;7.60;99.90
67163;DHT22;54092;53.088;8.850;2023-05-03T05:16:39;7.70;99.90
67163;DHT22;54092;53.088;8.850;2023-05-03T05:19:05;7.70;99.90
67163;DHT22;54092;53.088;8.850;2023-05-03T05:21:30;7.80;99.90
67163;DHT22;54092;53.088;8.850;2023-05-03T05:23:56;8.00;99.90
67163;DHT22;54092;53.088;8.850;2023-05-03T05:26:21;8.00;99.90
67163;DHT22;54092;53.088;8.850;2023-05-03T05:28:47;8.10;99.90
67163;DHT22;54092;53.088;8.850;2023-05-03T05:31:13;8.20;99.90
67163;DHT22;54092;53.088;8.850;2023-05-03T05:33:39;8.30;99.90
67163;DHT22;54092;53.088;8.850;2023-05-03T05:36:05;8.20;99.90
67163;DHT22;54092;53.088;8.850;2023-05-03T05:38:30;8.30;99.90
67163;DHT22;54092;53.088;8.850;2023-05-03T05:40:56;8.30;99.90
67163;DHT22;54092;53.088;8.850;2023-05-03T05:43:21;8.40;99.90
67163;DHT22;54092;53.088;8.850;2023-05-03T05:45:47;8.40;99.90
67163;DHT22;54092;53.088;8.850;2023-05-03T05:48:13;8.50;99.90
67163;DHT22;54092;53.088;8.850;2023-05-03T05:50:38;8.50;99.90
67163;DHT22;54092;53.088;8.850;2023-05-03T05:53:04;8.60;99.90
67163;DHT22;54092;53.088;8.850;2023-05-03T05:55:29;8.70;99.90
67163;DHT22;54092;53.088;8.850;2023-05-03T05:57:55;8.80;99.90
67163;DHT22;54092;53.088;8.850;2023-05-03T06:00:20;8.80;99.90
67163;DHT22;54092;53.088;8.850;2023-05-03T06:02:46;8.90;99.90
67163;DHT22;54092;53.088;8.850;2023-05-03T06:05:12;8.90;99.90
67163;DHT22;54092;53.088;8.850;2023-05-03T06:07:37;9.00;99.90
67163;DHT22;54092;53.088;8.850;2023-05-03T06:10:03;9.10;99.90
67163;DHT22;54092;53.088;8.850;2023-05-03T06:12:29;9.30;99.90
67163;DHT22;54092;53.088;8.850;2023-05-03T06:14:55;9.40;99.90
67163;DHT22;54092;53.088;8.850;2023-05-03T06:17:21;9.50;99.90
67163;DHT22;54092;53.088;8.850;2023-05-03T06:19:50;9.60;99.90
67163;DHT22;54092;53.088;8.850;2023-05-03T06:22:15;9.70;99.90
67163;DHT22;54092;53.088;8.850;2023-05-03T06:24:41;9.70;99.90
67163;DHT22;54092;53.088;8.850;2023-05-03T06:27:06;9.80;99.90
67163;DHT22;54092;53.088;8.850;2023-05-03T06:29:32;9.80;99.90
67163;DHT22;54092;53.088;8.850;2023-05-03T06:31:57;9.80;99.90
67163;DHT22;54092;53.088;8.850;2023-05-03T06:34:24;9.80;99.90
67163;DHT22;54092;53.088;8.850;2023-05-03T06:36:50;9.90;99.90
67163;DHT22;54092;53.088;8.850;2023-05-03T06:39:16;10.00;99.90
67163;DHT22;54092;53.088;8.850;2023-05-03T06:41:42;10.10;99.90
67163;DHT22;54092;53.088;8.850;2023-05-03T06:44:08;10.20;99.90
67163;DHT22;54092;53.088;8.850;2023-05-03T06:46:33;10.30;99.90
67163;DHT22;54092;53.088;8.850;2023-05-03T06:48:59;10.30;99.90
67163;DHT22;54092;53.088;8.850;2023-05-03T06:51:25;10.20;99.90
67163;DHT22;54092;53.088;8.850;2023-05-03T06:53:57;10.10;99.90
67163;DHT22;54092;53.088;8.850;2023-05-03T06:56:36;10.10;99.90
67163;DHT22;54092;53.088;8.850;2023-05-03T06:59:02;10.10;99.90
67163;DHT22;54092;53.088;8.850;2023-05-03T07:01:29;10.10;99.90
67163;DHT22;54092;53.088;8.850;2023-05-03T07:03:55;10.00;99.90
67163;DHT22;54092;53.088;8.850;2023-05-03T07:06:20;10.00;99.90
67163;DHT22;54092;53.088;8.850;2023-05-03T07:08:52;10.10;99.90
67163;DHT22;54092;53.088;8.850;2023-05-03T07:11:21;10.20;99.90
67163;DHT22;54092;53.088;8.850;2023-05-03T07:13:52;10.30;99.90
67163;DHT22;54092;53.088;8.850;2023-05-03T07:16:18;10.20;99.90
67163;DHT22;54092;53.088;8.850;2023-05-03T07:18:44;10.20;99.90
67163;DHT22;54092;53.088;8.850;2023-05-03T07:21:11;10.30;99.90
67163;DHT22;54092;53.088;8.850;2023-05-03T07:23:36;10.40;99.90
67163;DHT22;54092;53.088;8.850;2023-05-03T07:26:02;10.50;99.90
67163;DHT22;54092;53.088;8.850;2023-05-03T07:28:28;10.60;99.90
67163;DHT22;54092;53.088;8.850;2023-05-03T07:30:53;10.50;99.90
67163;DHT22;54092;53.088;8.850;2023-05-03T07:33:19;10.60;99.90
67163;DHT22;54092;53.088;8.850;2023-05-03T07:35:45;10.70;99.90
67163;DHT22;54092;53.088;8.850;2023-05-03T07:38:11;10.80;99.90
67163;DHT22;54092;53.088;8.850;2023-05-03T07:40:37;11.00;99.90
67163;DHT22;54092;53.088;8.850;2023-05-03T07:43:03;11.10;99.90
67163;DHT22;54092;53.088;8.850;2023-05-03T07:45:28;10.80;99.90
67163;DHT22;54092;53.088;8.850;2023-05-03T07:47:54;10.60;99.90
67163;DHT22;54092;53.088;8.850;2023-05-03T07:50:21;10.70;99.90
67163;DHT22;54092;53.088;8.850;2023-05-03T07:52:47;10.90;99.90
67163;DHT22;54092;53.088;8.850;2023-05-03T07:55:16;11.10;99.90
67163;DHT22;54092;53.088;8.850;2023-05-03T07:57:42;11.10;99.90
67163;DHT22;54092;53.088;8.850;2023-05-03T08:00:08;11.30;99.90
67163;DHT22;54092;53.088;8.850;2023-05-03T08:02:35;11.50;99.90
67163;DHT22;54092;53.088;8.850;2023-05-03T08:05:01;11.60;99.90
67163;DHT22;54092;53.088;8.850;2023-05-03T08:07:26;12.00;99.90
67163;DHT22;54092;53.088;8.850;2023-05-03T08:09:53;12.50;99.90
67163;DHT22;54092;53.088;8.850;2023-05-03T08:12:18;12.80;99.90
67163;DHT22;54092;53.088;8.850;2023-05-03T08:14:43;12.60;99.90
67163;DHT22;54092;53.088;8.850;2023-05-03T08:17:09;12.60;99.90
67163;DHT22;54092;53.088;8.850;2023-05-03T08:19:35;12.70;99.90
67163;DHT22;54092;53.088;8.850;2023-05-03T08:22:01;12.30;99.90
67163;DHT22;54092;53.088;8.850;2023-05-03T08:24:27;12.40;99.90
67163;DHT22;54092;53.088;8.850;2023-05-03T08:26:53;12.50;99.90
67163;DHT22;54092;53.088;8.850;2023-05-03T08:29:19;12.70;99.90
67163;DHT22;54092;53.088;8.850;2023-05-03T08:31:45;12.30;99.90
67163;DHT22;54092;53.088;8.850;2023-05-03T08:34:10;12.10;99.90
67163;DHT22;54092;53.088;8.850;2023-05-03T08:36:37;12.00;99.90
67163;DHT22;54092;53.088;8.850;2023-05-03T08:39:03;11.90;99.90
67163;DHT22;54092;53.088;8.850;2023-05-03T08:41:32;11.70;99.90
67163;DHT22;54092;53.088;8.850;2023-05-03T08:43:59;11.50;99.90
67163;DHT22;54092;53.088;8.850;2023-05-03T08:46:26;11.40;99.90
67163;DHT22;54092;53.088;8.850;2023-05-03T08:48:53;11.30;99.90
67163;DHT22;54092;53.088;8.850;2023-05-03T08:51:22;11.20;99.90
67163;DHT22;54092;53.088;8.850;2023-05-03T08:53:48;11.10;99.90
67163;DHT22;54092;53.088;8.850;2023-05-03T08:56:28;11.20;99.90
67163;DHT22;54092;53.088;8.850;2023-05-03T08:58:54;11.30;99.90
67163;DHT22;54092;53.088;8.850;2023-05-03T09:01:20;11.50;99.90
67163;DHT22;54092;53.088;8.850;2023-05-03T09:03:49;11.70;99.90
67163;DHT22;54092;53.088;8.850;2023-05-03T09:06:22;11.90;99.90
67163;DHT22;54092;53.088;8.850;2023-05-03T09:08:50;11.80;99.90
67163;DHT22;54092;53.088;8.850;2023-05-03T09:11:32;12.00;99.90
67163;DHT22;54092;53.088;8.850;2023-05-03T09:14:08;12.30;99.90
67163;DHT22;54092;53.088;8.850;2023-05-03T09:16:34;12.70;99.90
67163;DHT22;54092;53.088;8.850;2023-05-03T09:19:03;13.20;99.90
67163;DHT22;54092;53.088;8.850;2023-05-03T09:21:29;14.70;99.90
67163;DHT22;54092;53.088;8.850;2023-05-03T09:23:58;16.20;99.90
67163;DHT22;54092;53.088;8.850;2023-05-03T09:26:31;17.50;99.90
67163;DHT22;54092;53.088;8.850;2023-05-03T09:28:58;18.10;99.90
67163;DHT22;54092;53.088;8.850;2023-05-03T09:31:30;18.00;99.90
67163;DHT22;54092;53.088;8.850;2023-05-03T09:33:56;18.70;99.90
67163;DHT22;54092;53.088;8.850;2023-05-03T09:36:22;18.60;99.90
67163;DHT22;54092;53.088;8.850;2023-05-03T09:38:49;17.30;99.90
67163;DHT22;54092;53.088;8.850;2023-05-03T09:41:15;15.30;99.90
67163;DHT22;54092;53.088;8.850;2023-05-03T09:43:51;14.40;99.90
67163;DHT22;54092;53.088;8.850;2023-05-03T09:46:19;14.30;99.90
67163;DHT22;54092;53.088;8.850;2023-05-03T09:48:44;15.30;99.90
67163;DHT22;54092;53.088;8.850;2023-05-03T09:51:11;15.50;99.90
67163;DHT22;54092;53.088;8.850;2023-05-03T09:53:38;15.30;99.90
67163;DHT22;54092;53.088;8.850;2023-05-03T09:56:06;15.00;99.90
67163;DHT22;54092;53.088;8.850;2023-05-03T09:58:35;15.80;99.90
67163;DHT22;54092;53.088;8.850;2023-05-03T10:01:01;16.40;99.90
67163;DHT22;54092;53.088;8.850;2023-05-03T10:03:33;16.60;99.90
67163;DHT22;54092;53.088;8.850;2023-05-03T10:06:00;17.80;99.90
67163;DHT22;54092;53.088;8.850;2023-05-03T10:08:33;19.20;99.90
67163;DHT22;54092;53.088;8.850;2023-05-03T10:11:02;20.40;99.90
67163;DHT22;54092;53.088;8.850;2023-05-03T10:13:28;21.30;99.90
67163;DHT22;54092;53.088;8.850;2023-05-03T10:16:04;21.50;99.90
67163;DHT22;54092;53.088;8.850;2023-05-03T10:18:31;22.60;99.90
67163;DHT22;54092;53.088;8.850;2023-05-03T10:21:05;22.70;99.90
67163;DHT22;54092;53.088;8.850;2023-05-03T10:23:31;22.60;99.90
67163;DHT22;54092;53.088;8.850;2023-05-03T10:26:16;22.80;99.90
67163;DHT22;54092;53.088;8.850;2023-05-03T10:28:42;22.40;99.90
67163;DHT22;54092;53.088;8.850;2023-05-03T10:31:44;22.60;99.90
67163;DHT22;54092;53.088;8.850;2023-05-03T10:34:23;22.70;99.90
67163;DHT22;54092;53.088;8.850;2023-05-03T10:36:50;22.10;99.90
67163;DHT22;54092;53.088;8.850;2023-05-03T10:39:18;20.90;99.90
67163;DHT22;54092;53.088;8.850;2023-05-03T10:41:46;18.60;99.90
67163;DHT22;54092;53.088;8.850;2023-05-03T10:44:37;17.40;99.90
67163;DHT22;54092;53.088;8.850;2023-05-03T10:47:16;16.40;99.90
67163;DHT22;54092;53.088;8.850;2023-05-03T10:49:43;15.80;99.90
67163;DHT22;54092;53.088;8.850;2023-05-03T10:55:02;15.20;99.90
67163;DHT22;54092;53.088;8.850;2023-05-03T10:57:34;15.10;99.90
67163;DHT22;54092;53.088;8.850;2023-05-03T11:00:02;15.00;99.90
67163;DHT22;54092;53.088;8.850;2023-05-03T11:02:40;15.50;99.90
67163;DHT22;54092;53.088;8.850;2023-05-03T11:05:08;16.00;99.90
67163;DHT22;54092;53.088;8.850;2023-05-03T11:07:35;16.40;99.90
67163;DHT22;54092;53.088;8.850;2023-05-03T11:10:17;17.20;99.90
67163;DHT22;54092;53.088;8.850;2023-05-03T11:12:43;18.70;99.90
67163;DHT22;54092;53.088;8.850;2023-05-03T11:15:09;19.50;99.90
67163;DHT22;54092;53.088;8.850;2023-05-03T11:17:36;19.90;99.90
67163;DHT22;54092;53.088;8.850;2023-05-03T11:20:04;20.90;99.90
67163;DHT22;54092;53.088;8.850;2023-05-03T11:22:33;21.90;99.90
67163;DHT22;54092;53.088;8.850;2023-05-03T11:24:58;22.60;99.90
67163;DHT22;54092;53.088;8.850;2023-05-03T11:27:24;22.50;99.90
67163;DHT22;54092;53.088;8.850;2023-05-03T11:29:50;22.10;99.90
67163;DHT22;54092;53.088;8.850;2023-05-03T11:32:17;22.30;99.90
67163;DHT22;54092;53.088;8.850;2023-05-03T11:34:43;22.50;99.90
67163;DHT22;54092;53.088;8.850;2023-05-03T11:37:09;22.40;99.90
67163;DHT22;54092;53.088;8.850;2023-05-03T11:39:35;22.20;99.90
67163;DHT22;54092;53.088;8.850;2023-05-03T11:42:04;22.00;99.90
67163;DHT22;54092;53.088;8.850;2023-05-03T11:44:30;22.60;99.90
67163;DHT22;54092;53.088;8.850;2023-05-03T11:46:56;22.70;99.90
67163;DHT22;54092;53.088;8.850;2023-05-03T11:49:23;22.20;99.90
67163;DHT22;54092;53.088;8.850;2023-05-03T11:51:50;22.20;99.90
67163;DHT22;54092;53.088;8.850;2023-05-03T11:54:16;21.70;99.90
67163;DHT22;54092;53.088;8.850;2023-05-03T11:56:42;21.20;99.90
67163;DHT22;54092;53.088;8.850;2023-05-03T11:59:08;20.80;99.90
67163;DHT22;54092;53.088;8.850;2023-05-03T12:01:33;20.60;99.90
67163;DHT22;54092;53.088;8.850;2023-05-03T12:04:00;21.40;99.90
67163;DHT22;54092;53.088;8.850;2023-05-03T12:06:27;22.00;99.90
67163;DHT22;54092;53.088;8.850;2023-05-03T12:08:54;21.90;99.90
67163;DHT22;54092;53.088;8.850;2023-05-03T12:11:20;21.40;99.90
67163;DHT22;54092;53.088;8.850;2023-05-03T12:13:55;19.20;99.90
67163;DHT22;54092;53.088;8.850;2023-05-03T12:16:22;18.30;99.90
67163;DHT22;54092;53.088;8.850;2023-05-03T12:18:50;18.10;99.90
67163;DHT22;54092;53.088;8.850;2023-05-03T12:21:17;17.30;99.90
67163;DHT22;54092;53.088;8.850;2023-05-03T12:23:43;16.50;99.90
67163;DHT22;54092;53.088;8.850;2023-05-03T12:26:08;16.00;99.90
67163;DHT22;54092;53.088;8.850;2023-05-03T12:28:34;15.90;99.90
67163;DHT22;54092;53.088;8.850;2023-05-03T12:31:00;16.00;99.90
67163;DHT22;54092;53.088;8.850;2023-05-03T12:33:25;16.00;99.90
67163;DHT22;54092;53.088;8.850;2023-05-03T12:35:51;15.80;99.90
67163;DHT22;54092;53.088;8.850;2023-05-03T12:38:16;15.90;99.90
67163;DHT22;54092;53.088;8.850;2023-05-03T12:40:42;15.80;99.90
67163;DHT22;54092;53.088;8.850;2023-05-03T12:43:09;15.70;99.90
67163;DHT22;54092;53.088;8.850;2023-05-03T12:45:35;15.70;99.90
67163;DHT22;54092;53.088;8.850;2023-05-03T12:48:01;15.70;99.90
67163;DHT22;54092;53.088;8.850;2023-05-03T12:50:27;15.60;99.90
67163;DHT22;54092;53.088;8.850;2023-05-03T12:52:52;15.40;99.90
67163;DHT22;54092;53.088;8.850;2023-05-03T12:55:18;15.40;99.90
67163;DHT22;54092;53.088;8.850;2023-05-03T12:57:43;14.90;99.90
67163;DHT22;54092;53.088;8.850;2023-05-03T13:00:09;14.90;99.90
67163;DHT22;54092;53.088;8.850;2023-05-03T13:02:35;15.10;99.90
67163;DHT22;54092;53.088;8.850;2023-05-03T13:05:00;15.10;99.90
67163;DHT22;54092;53.088;8.850;2023-05-03T13:07:28;14.70;99.90
67163;DHT22;54092;53.088;8.850;2023-05-03T13:09:54;14.60;99.90
67163;DHT22;54092;53.088;8.850;2023-05-03T13:12:20;14.40;99.90
67163;DHT22;54092;53.088;8.850;2023-05-03T13:14:47;14.30;99.90
67163;DHT22;54092;53.088;8.850;2023-05-03T13:17:14;14.40;99.90
67163;DHT22;54092;53.088;8.850;2023-05-03T13:19:42;14.30;99.90
67163;DHT22;54092;53.088;8.850;2023-05-03T13:22:08;14.40;99.90
67163;DHT22;54092;53.088;8.850;2023-05-03T13:24:34;14.50;99.90
67163;DHT22;54092;53.088;8.850;2023-05-03T13:27:00;14.70;99.90
67163;DHT22;54092;53.088;8.850;2023-05-03T13:29:26;14.80;99.90
67163;DHT22;54092;53.088;8.850;2023-05-03T13:31:52;14.90;99.90
67163;DHT22;54092;53.088;8.850;2023-05-03T13:34:18;14.80;99.90
67163;DHT22;54092;53.088;8.850;2023-05-03T13:36:43;14.50;99.90
67163;DHT22;54092;53.088;8.850;2023-05-03T13:39:09;14.60;99.90
67163;DHT22;54092;53.088;8.850;2023-05-03T13:41:34;14.70;99.90
67163;DHT22;54092;53.088;8.850;2023-05-03T13:44:03;14.50;99.90
67163;DHT22;54092;53.088;8.850;2023-05-03T13:46:28;14.60;99.90
67163;DHT22;54092;53.088;8.850;2023-05-03T13:48:54;14.70;99.90
67163;DHT22;54092;53.088;8.850;2023-05-03T13:51:20;14.90;99.90
67163;DHT22;54092;53.088;8.850;2023-05-03T13:53:46;15.10;99.90
67163;DHT22;54092;53.088;8.850;2023-05-03T13:56:11;15.10;99.90
67163;DHT22;54092;53.088;8.850;2023-05-03T13:58:37;14.80;99.90
67163;DHT22;54092;53.088;8.850;2023-05-03T14:01:04;14.80;99.90
67163;DHT22;54092;53.088;8.850;2023-05-03T14:03:30;14.70;99.90
67163;DHT22;54092;53.088;8.850;2023-05-03T14:05:56;14.60;99.90
67163;DHT22;54092;53.088;8.850;2023-05-03T14:08:22;14.80;99.90
67163;DHT22;54092;53.088;8.850;2023-05-03T14:10:49;14.90;99.90
67163;DHT22;54092;53.088;8.850;2023-05-03T14:13:15;15.00;99.90
67163;DHT22;54092;53.088;8.850;2023-05-03T14:15:42;15.00;99.90
67163;DHT22;54092;53.088;8.850;2023-05-03T14:18:08;15.00;99.90
67163;DHT22;54092;53.088;8.850;2023-05-03T14:20:34;15.00;99.90
67163;DHT22;54092;53.088;8.850;2023-05-03T14:23:00;15.10;99.90
67163;DHT22;54092;53.088;8.850;2023-05-03T14:25:26;15.20;99.90
67163;DHT22;54092;53.088;8.850;2023-05-03T14:27:52;15.00;99.90
67163;DHT22;54092;53.088;8.850;2023-05-03T14:30:18;14.90;99.90
67163;DHT22;54092;53.088;8.850;2023-05-03T14:32:43;14.80;99.90
67163;DHT22;54092;53.088;8.850;2023-05-03T14:35:09;14.70;99.90
67163;DHT22;54092;53.088;8.850;2023-05-03T14:37:34;14.50;99.90
67163;DHT22;54092;53.088;8.850;2023-05-03T14:40:01;14.60;99.90
67163;DHT22;54092;53.088;8.850;2023-05-03T14:42:31;14.80;99.90
67163;DHT22;54092;53.088;8.850;2023-05-03T14:44:57;14.90;99.90
67163;DHT22;54092;53.088;8.850;2023-05-03T14:47:22;14.70;99.90
67163;DHT22;54092;53.088;8.850;2023-05-03T14:49:48;14.60;99.90
67163;DHT22;54092;53.088;8.850;2023-05-03T14:52:13;14.60;99.90
67163;DHT22;54092;53.088;8.850;2023-05-03T14:54:39;14.50;99.90
67163;DHT22;54092;53.088;8.850;2023-05-03T14:57:04;14.60;99.90
67163;DHT22;54092;53.088;8.850;2023-05-03T14:59:31;14.70;99.90
67163;DHT22;54092;53.088;8.850;2023-05-03T15:01:57;14.70;99.90
67163;DHT22;54092;53.088;8.850;2023-05-03T15:04:23;14.60;99.90
67163;DHT22;54092;53.088;8.850;2023-05-03T15:06:49;14.50;99.90
67163;DHT22;54092;53.088;8.850;2023-05-03T15:09:15;14.20;99.90
67163;DHT22;54092;53.088;8.850;2023-05-03T15:11:42;14.20;99.90
67163;DHT22;54092;53.088;8.850;2023-05-03T15:14:07;14.30;99.90
67163;DHT22;54092;53.088;8.850;2023-05-03T15:16:33;14.40;99.90
67163;DHT22;54092;53.088;8.850;2023-05-03T15:18:59;14.50;99.90
67163;DHT22;54092;53.088;8.850;2023-05-03T15:21:26;14.70;99.90
67163;DHT22;54092;53.088;8.850;2023-05-03T15:23:53;14.60;99.90
67163;DHT22;54092;53.088;8.850;2023-05-03T15:26:18;14.60;99.90
67163;DHT22;54092;53.088;8.850;2023-05-03T15:28:44;14.60;99.90
67163;DHT22;54092;53.088;8.850;2023-05-03T15:31:13;14.50;99.90
67163;DHT22;54092;53.088;8.850;2023-05-03T15:33:40;14.50;99.90
67163;DHT22;54092;53.088;8.850;2023-05-03T15:36:08;14.30;99.90
67163;DHT22;54092;53.088;8.850;2023-05-03T15:38:34;14.10;99.90
67163;DHT22;54092;53.088;8.850;2023-05-03T15:41:00;14.10;99.90
67163;DHT22;54092;53.088;8.850;2023-05-03T15:43:25;14.10;99.90